sensor_id;sensor_type;location;lat;lon;timestamp;P1;durP1;ratioP1;P2;durP2;ratioP2
46407;SDS011;32110;45.724;21.276;2023-02-26T00:00:57;21.65;;;9.30;;
46407;SDS011;32110;45.724;21.276;2023-02-26T00:03:22;9.48;;;4.78;;
46407;SDS011;32110;45.724;21.276;2023-02-26T00:05:48;24.67;;;10.80;;
46407;SDS011;32110;45.724;21.276;2023-02-26T00:08:13;13.83;;;6.50;;
46407;SDS011;32110;45.724;21.276;2023-02-26T00:10:38;10.87;;;4.17;;
46407;SDS011;32110;45.724;21.276;2023-02-26T00:13:03;10.98;;;4.68;;
46407;SDS011;32110;45.724;21.276;2023-02-26T00:15:29;102.55;;;36.15;;
46407;SDS011;32110;45.724;21.276;2023-02-26T00:17:57;41.25;;;16.40;;
46407;SDS011;32110;45.724;21.276;2023-02-26T00:20:23;14.00;;;5.38;;
46407;SDS011;32110;45.724;21.276;2023-02-26T00:22:49;8.57;;;4.13;;
46407;SDS011;32110;45.724;21.276;2023-02-26T00:25:14;6.20;;;3.60;;
46407;SDS011;32110;45.724;21.276;2023-02-26T00:27:39;7.53;;;3.80;;
46407;SDS011;32110;45.724;21.276;2023-02-26T00:30:05;6.88;;;3.40;;
46407;SDS011;32110;45.724;21.276;2023-02-26T00:32:32;6.70;;;3.58;;
46407;SDS011;32110;45.724;21.276;2023-02-26T00:34:57;8.20;;;3.55;;
46407;SDS011;32110;45.724;21.276;2023-02-26T00:37:27;6.20;;;3.85;;
46407;SDS011;32110;45.724;21.276;2023-02-26T00:40:13;32.60;;;10.23;;
46407;SDS011;32110;45.724;21.276;2023-02-26T00:42:39;10.75;;;5.47;;
46407;SDS011;32110;45.724;21.276;2023-02-26T00:45:05;15.50;;;6.68;;
46407;SDS011;32110;45.724;21.276;2023-02-26T00:50:04;12.50;;;5.70;;
46407;SDS011;32110;45.724;21.276;2023-02-26T00:55:03;11.15;;;5.00;;
46407;SDS011;32110;45.724;21.276;2023-02-26T00:57:29;11.45;;;4.32;;
46407;SDS011;32110;45.724;21.276;2023-02-26T00:59:54;9.50;;;5.18;;
46407;SDS011;32110;45.724;21.276;2023-02-26T01:02:19;11.37;;;6.30;;
46407;SDS011;32110;45.724;21.276;2023-02-26T01:04:45;11.75;;;6.90;;
46407;SDS011;32110;45.724;21.276;2023-02-26T01:07:11;9.43;;;4.35;;
46407;SDS011;32110;45.724;21.276;2023-02-26T01:09:37;11.55;;;5.30;;
46407;SDS011;32110;45.724;21.276;2023-02-26T01:12:03;8.35;;;5.05;;
46407;SDS011;32110;45.724;21.276;2023-02-26T01:14:29;16.08;;;7.43;;
46407;SDS011;32110;45.724;21.276;2023-02-26T01:17:14;15.55;;;7.55;;
46407;SDS011;32110;45.724;21.276;2023-02-26T01:22:13;13.15;;;6.95;;
46407;SDS011;32110;45.724;21.276;2023-02-26T01:24:39;14.73;;;6.55;;
46407;SDS011;32110;45.724;21.276;2023-02-26T01:27:04;13.48;;;6.38;;
46407;SDS011;32110;45.724;21.276;2023-02-26T01:29:30;12.68;;;6.38;;
46407;SDS011;32110;45.724;21.276;2023-02-26T01:31:57;7.07;;;4.43;;
46407;SDS011;32110;45.724;21.276;2023-02-26T01:36:57;17.05;;;7.95;;
46407;SDS011;32110;45.724;21.276;2023-02-26T01:39:28;12.75;;;6.10;;
46407;SDS011;32110;45.724;21.276;2023-02-26T01:44:55;12.20;;;5.03;;
46407;SDS011;32110;45.724;21.276;2023-02-26T01:47:36;17.98;;;7.18;;
46407;SDS011;32110;45.724;21.276;2023-02-26T01:50:14;16.90;;;6.55;;
46407;SDS011;32110;45.724;21.276;2023-02-26T01:53:23;13.90;;;6.05;;
46407;SDS011;32110;45.724;21.276;2023-02-26T01:55:28;11.13;;;4.70;;
46407;SDS011;32110;45.724;21.276;2023-02-26T01:57:54;13.18;;;4.85;;
46407;SDS011;32110;45.724;21.276;2023-02-26T02:00:21;8.68;;;4.47;;
46407;SDS011;32110;45.724;21.276;2023-02-26T02:02:46;10.85;;;5.03;;
46407;SDS011;32110;45.724;21.276;2023-02-26T02:05:23;13.05;;;5.30;;
46407;SDS011;32110;45.724;21.276;2023-02-26T02:07:50;15.17;;;6.67;;
46407;SDS011;32110;45.724;21.276;2023-02-26T02:10:16;10.90;;;4.90;;
46407;SDS011;32110;45.724;21.276;2023-02-26T02:27:43;10.77;;;5.27;;
46407;SDS011;32110;45.724;21.276;2023-02-26T02:35:21;8.77;;;4.70;;
46407;SDS011;32110;45.724;21.276;2023-02-26T02:37:59;5.13;;;3.42;;
46407;SDS011;32110;45.724;21.276;2023-02-26T02:40:28;7.25;;;3.28;;
46407;SDS011;32110;45.724;21.276;2023-02-26T02:43:00;5.15;;;3.17;;
46407;SDS011;32110;45.724;21.276;2023-02-26T02:45:33;6.47;;;3.60;;
46407;SDS011;32110;45.724;21.276;2023-02-26T02:48:04;7.18;;;3.53;;
46407;SDS011;32110;45.724;21.276;2023-02-26T02:50:37;6.43;;;3.60;;
46407;SDS011;32110;45.724;21.276;2023-02-26T02:53:08;5.30;;;3.25;;
46407;SDS011;32110;45.724;21.276;2023-02-26T02:56:17;5.63;;;3.33;;
46407;SDS011;32110;45.724;21.276;2023-02-26T02:58:25;4.87;;;3.10;;
46407;SDS011;32110;45.724;21.276;2023-02-26T03:00:53;5.50;;;3.40;;
46407;SDS011;32110;45.724;21.276;2023-02-26T03:03:25;6.53;;;3.72;;
46407;SDS011;32110;45.724;21.276;2023-02-26T03:05:51;7.82;;;4.00;;
46407;SDS011;32110;45.724;21.276;2023-02-26T03:08:18;6.93;;;3.70;;
46407;SDS011;32110;45.724;21.276;2023-02-26T03:10:45;7.35;;;4.10;;
46407;SDS011;32110;45.724;21.276;2023-02-26T03:13:14;6.47;;;3.75;;
46407;SDS011;32110;45.724;21.276;2023-02-26T03:20:59;4.63;;;3.30;;
46407;SDS011;32110;45.724;21.276;2023-02-26T03:23:32;5.75;;;3.45;;
46407;SDS011;32110;45.724;21.276;2023-02-26T03:26:07;6.43;;;3.30;;
46407;SDS011;32110;45.724;21.276;2023-02-26T03:28:37;6.20;;;3.35;;
46407;SDS011;32110;45.724;21.276;2023-02-26T03:31:06;8.13;;;3.75;;
46407;SDS011;32110;45.724;21.276;2023-02-26T03:33:36;7.40;;;3.97;;
46407;SDS011;32110;45.724;21.276;2023-02-26T03:36:23;6.03;;;3.58;;
46407;SDS011;32110;45.724;21.276;2023-02-26T03:38:57;5.70;;;3.30;;
46407;SDS011;32110;45.724;21.276;2023-02-26T03:41:47;7.22;;;3.45;;
46407;SDS011;32110;45.724;21.276;2023-02-26T03:44:13;5.53;;;3.53;;
46407;SDS011;32110;45.724;21.276;2023-02-26T03:46:40;8.80;;;3.95;;
46407;SDS011;32110;45.724;21.276;2023-02-26T03:49:10;7.38;;;4.18;;
46407;SDS011;32110;45.724;21.276;2023-02-26T03:54:03;8.65;;;4.38;;
46407;SDS011;32110;45.724;21.276;2023-02-26T03:56:32;7.05;;;4.55;;
46407;SDS011;32110;45.724;21.276;2023-02-26T03:58:58;7.28;;;4.15;;
46407;SDS011;32110;45.724;21.276;2023-02-26T04:01:25;6.00;;;3.63;;
46407;SDS011;32110;45.724;21.276;2023-02-26T04:03:55;6.30;;;3.72;;
46407;SDS011;32110;45.724;21.276;2023-02-26T04:06:21;7.63;;;4.23;;
46407;SDS011;32110;45.724;21.276;2023-02-26T04:08:47;9.50;;;4.50;;
46407;SDS011;32110;45.724;21.276;2023-02-26T04:11:16;8.40;;;4.13;;
46407;SDS011;32110;45.724;21.276;2023-02-26T04:13:42;7.65;;;4.30;;
46407;SDS011;32110;45.724;21.276;2023-02-26T04:16:07;6.45;;;4.28;;
46407;SDS011;32110;45.724;21.276;2023-02-26T04:18:33;7.90;;;3.80;;
46407;SDS011;32110;45.724;21.276;2023-02-26T04:20:58;6.90;;;4.00;;
46407;SDS011;32110;45.724;21.276;2023-02-26T04:23:23;6.10;;;3.83;;
46407;SDS011;32110;45.724;21.276;2023-02-26T04:25:48;7.03;;;4.10;;
46407;SDS011;32110;45.724;21.276;2023-02-26T04:28:14;8.73;;;4.00;;
46407;SDS011;32110;45.724;21.276;2023-02-26T04:30:39;5.72;;;3.95;;
46407;SDS011;32110;45.724;21.276;2023-02-26T04:33:04;8.13;;;4.73;;
46407;SDS011;32110;45.724;21.276;2023-02-26T04:35:29;8.13;;;4.80;;
46407;SDS011;32110;45.724;21.276;2023-02-26T04:37:55;6.87;;;4.27;;
46407;SDS011;32110;45.724;21.276;2023-02-26T04:40:20;7.90;;;4.03;;
46407;SDS011;32110;45.724;21.276;2023-02-26T04:42:47;8.50;;;4.30;;
46407;SDS011;32110;45.724;21.276;2023-02-26T04:45:13;8.03;;;4.63;;
46407;SDS011;32110;45.724;21.276;2023-02-26T04:47:38;8.53;;;4.50;;
46407;SDS011;32110;45.724;21.276;2023-02-26T04:50:03;8.77;;;5.18;;
46407;SDS011;32110;45.724;21.276;2023-02-26T04:52:29;9.10;;;5.05;;
46407;SDS011;32110;45.724;21.276;2023-02-26T04:54:54;7.93;;;4.70;;
46407;SDS011;32110;45.724;21.276;2023-02-26T04:57:19;7.60;;;4.37;;
46407;SDS011;32110;45.724;21.276;2023-02-26T04:59:44;7.90;;;4.40;;
46407;SDS011;32110;45.724;21.276;2023-02-26T05:02:10;8.47;;;4.73;;
46407;SDS011;32110;45.724;21.276;2023-02-26T05:04:35;9.03;;;4.83;;
46407;SDS011;32110;45.724;21.276;2023-02-26T05:07:00;9.67;;;5.27;;
46407;SDS011;32110;45.724;21.276;2023-02-26T05:09:26;8.75;;;5.20;;
46407;SDS011;32110;45.724;21.276;2023-02-26T05:11:51;7.77;;;4.57;;
46407;SDS011;32110;45.724;21.276;2023-02-26T05:14:16;8.13;;;5.07;;
46407;SDS011;32110;45.724;21.276;2023-02-26T05:16:41;8.93;;;5.00;;
46407;SDS011;32110;45.724;21.276;2023-02-26T05:19:07;9.18;;;5.22;;
46407;SDS011;32110;45.724;21.276;2023-02-26T05:21:32;8.73;;;5.10;;
46407;SDS011;32110;45.724;21.276;2023-02-26T05:23:57;8.63;;;5.10;;
46407;SDS011;32110;45.724;21.276;2023-02-26T05:26:23;9.13;;;4.97;;
46407;SDS011;32110;45.724;21.276;2023-02-26T05:28:48;9.68;;;4.90;;
46407;SDS011;32110;45.724;21.276;2023-02-26T05:31:13;9.53;;;5.30;;
46407;SDS011;32110;45.724;21.276;2023-02-26T05:33:38;10.30;;;5.35;;
46407;SDS011;32110;45.724;21.276;2023-02-26T05:36:04;10.67;;;5.37;;
46407;SDS011;32110;45.724;21.276;2023-02-26T05:38:31;8.43;;;5.32;;
46407;SDS011;32110;45.724;21.276;2023-02-26T05:40:56;9.23;;;5.40;;
46407;SDS011;32110;45.724;21.276;2023-02-26T05:43:21;9.35;;;5.28;;
46407;SDS011;32110;45.724;21.276;2023-02-26T05:45:48;10.15;;;5.63;;
46407;SDS011;32110;45.724;21.276;2023-02-26T05:48:13;9.05;;;5.20;;
46407;SDS011;32110;45.724;21.276;2023-02-26T05:50:38;9.30;;;5.37;;
46407;SDS011;32110;45.724;21.276;2023-02-26T05:53:04;7.67;;;5.07;;
46407;SDS011;32110;45.724;21.276;2023-02-26T05:55:29;9.67;;;5.37;;
46407;SDS011;32110;45.724;21.276;2023-02-26T05:57:54;9.10;;;5.33;;
46407;SDS011;32110;45.724;21.276;2023-02-26T06:00:21;9.98;;;5.32;;
46407;SDS011;32110;45.724;21.276;2023-02-26T06:02:46;11.35;;;5.03;;
46407;SDS011;32110;45.724;21.276;2023-02-26T06:05:11;8.93;;;5.53;;
46407;SDS011;32110;45.724;21.276;2023-02-26T06:07:36;9.32;;;5.07;;
46407;SDS011;32110;45.724;21.276;2023-02-26T06:10:02;12.50;;;5.20;;
46407;SDS011;32110;45.724;21.276;2023-02-26T06:12:27;9.65;;;5.68;;
46407;SDS011;32110;45.724;21.276;2023-02-26T06:14:52;10.70;;;5.77;;
46407;SDS011;32110;45.724;21.276;2023-02-26T06:17:17;10.73;;;5.83;;
46407;SDS011;32110;45.724;21.276;2023-02-26T06:19:43;10.40;;;5.03;;
46407;SDS011;32110;45.724;21.276;2023-02-26T06:22:09;10.52;;;5.38;;
46407;SDS011;32110;45.724;21.276;2023-02-26T06:24:34;11.27;;;5.77;;
46407;SDS011;32110;45.724;21.276;2023-02-26T06:26:59;12.37;;;6.40;;
46407;SDS011;32110;45.724;21.276;2023-02-26T06:29:25;12.30;;;5.60;;
46407;SDS011;32110;45.724;21.276;2023-02-26T06:31:50;13.77;;;6.67;;
46407;SDS011;32110;45.724;21.276;2023-02-26T06:34:15;11.82;;;6.22;;
46407;SDS011;32110;45.724;21.276;2023-02-26T06:36:40;11.13;;;6.07;;
46407;SDS011;32110;45.724;21.276;2023-02-26T06:39:06;10.37;;;6.23;;
46407;SDS011;32110;45.724;21.276;2023-02-26T06:41:32;11.27;;;5.70;;
46407;SDS011;32110;45.724;21.276;2023-02-26T06:43:57;48.75;;;19.23;;
46407;SDS011;32110;45.724;21.276;2023-02-26T06:46:22;19.13;;;9.40;;
46407;SDS011;32110;45.724;21.276;2023-02-26T06:48:47;12.87;;;6.93;;
46407;SDS011;32110;45.724;21.276;2023-02-26T06:51:13;13.30;;;7.27;;
46407;SDS011;32110;45.724;21.276;2023-02-26T06:53:38;13.52;;;7.18;;
46407;SDS011;32110;45.724;21.276;2023-02-26T06:56:03;12.15;;;6.57;;
46407;SDS011;32110;45.724;21.276;2023-02-26T06:58:29;13.25;;;6.97;;
46407;SDS011;32110;45.724;21.276;2023-02-26T07:00:54;12.95;;;7.03;;
46407;SDS011;32110;45.724;21.276;2023-02-26T07:03:20;11.93;;;7.03;;
46407;SDS011;32110;45.724;21.276;2023-02-26T07:05:45;13.10;;;6.85;;
46407;SDS011;32110;45.724;21.276;2023-02-26T07:08:11;12.82;;;7.38;;
46407;SDS011;32110;45.724;21.276;2023-02-26T07:10:37;19.38;;;8.02;;
46407;SDS011;32110;45.724;21.276;2023-02-26T07:13:02;12.75;;;8.07;;
46407;SDS011;32110;45.724;21.276;2023-02-26T07:15:28;15.57;;;7.88;;
46407;SDS011;32110;45.724;21.276;2023-02-26T07:17:53;14.57;;;8.20;;
46407;SDS011;32110;45.724;21.276;2023-02-26T07:20:18;14.00;;;7.80;;
46407;SDS011;32110;45.724;21.276;2023-02-26T07:22:44;13.70;;;7.72;;
46407;SDS011;32110;45.724;21.276;2023-02-26T07:25:09;14.60;;;7.93;;
46407;SDS011;32110;45.724;21.276;2023-02-26T07:27:36;13.25;;;6.80;;
46407;SDS011;32110;45.724;21.276;2023-02-26T07:30:02;11.55;;;6.72;;
46407;SDS011;32110;45.724;21.276;2023-02-26T07:32:28;15.98;;;7.60;;
46407;SDS011;32110;45.724;21.276;2023-02-26T07:34:54;15.65;;;8.30;;
46407;SDS011;32110;45.724;21.276;2023-02-26T07:37:19;13.95;;;7.63;;
46407;SDS011;32110;45.724;21.276;2023-02-26T07:39:44;13.15;;;7.60;;
46407;SDS011;32110;45.724;21.276;2023-02-26T07:42:10;13.38;;;7.80;;
46407;SDS011;32110;45.724;21.276;2023-02-26T07:44:35;14.50;;;7.50;;
46407;SDS011;32110;45.724;21.276;2023-02-26T07:47:01;12.45;;;7.65;;
46407;SDS011;32110;45.724;21.276;2023-02-26T07:49:26;13.95;;;7.35;;
46407;SDS011;32110;45.724;21.276;2023-02-26T07:51:52;12.40;;;7.50;;
46407;SDS011;32110;45.724;21.276;2023-02-26T07:54:18;13.23;;;6.95;;
46407;SDS011;32110;45.724;21.276;2023-02-26T07:56:43;12.32;;;7.47;;
46407;SDS011;32110;45.724;21.276;2023-02-26T07:59:09;15.38;;;9.23;;
46407;SDS011;32110;45.724;21.276;2023-02-26T08:01:35;17.70;;;9.43;;
46407;SDS011;32110;45.724;21.276;2023-02-26T08:04:00;16.55;;;8.90;;
46407;SDS011;32110;45.724;21.276;2023-02-26T08:06:26;15.70;;;9.25;;
46407;SDS011;32110;45.724;21.276;2023-02-26T08:08:52;14.88;;;8.73;;
46407;SDS011;32110;45.724;21.276;2023-02-26T08:11:18;16.50;;;9.20;;
46407;SDS011;32110;45.724;21.276;2023-02-26T08:13:43;12.67;;;8.17;;
46407;SDS011;32110;45.724;21.276;2023-02-26T08:16:08;14.53;;;7.87;;
46407;SDS011;32110;45.724;21.276;2023-02-26T08:18:33;13.73;;;7.83;;
46407;SDS011;32110;45.724;21.276;2023-02-26T08:20:59;13.35;;;8.05;;
46407;SDS011;32110;45.724;21.276;2023-02-26T08:23:24;14.55;;;8.23;;
46407;SDS011;32110;45.724;21.276;2023-02-26T08:25:50;14.73;;;8.07;;
46407;SDS011;32110;45.724;21.276;2023-02-26T08:28:16;13.90;;;7.57;;
46407;SDS011;32110;45.724;21.276;2023-02-26T08:30:41;12.07;;;7.33;;
46407;SDS011;32110;45.724;21.276;2023-02-26T08:33:06;14.00;;;8.30;;
46407;SDS011;32110;45.724;21.276;2023-02-26T08:35:32;12.30;;;6.65;;
46407;SDS011;32110;45.724;21.276;2023-02-26T08:37:57;11.80;;;7.60;;
46407;SDS011;32110;45.724;21.276;2023-02-26T08:40:24;12.73;;;7.63;;
46407;SDS011;32110;45.724;21.276;2023-02-26T08:42:49;13.30;;;7.23;;
46407;SDS011;32110;45.724;21.276;2023-02-26T08:45:14;15.87;;;8.23;;
46407;SDS011;32110;45.724;21.276;2023-02-26T08:47:39;13.70;;;7.25;;
46407;SDS011;32110;45.724;21.276;2023-02-26T08:50:07;11.93;;;7.45;;
46407;SDS011;32110;45.724;21.276;2023-02-26T08:52:32;12.50;;;7.10;;
46407;SDS011;32110;45.724;21.276;2023-02-26T08:54:58;15.33;;;8.53;;
46407;SDS011;32110;45.724;21.276;2023-02-26T08:57:23;14.53;;;7.90;;
46407;SDS011;32110;45.724;21.276;2023-02-26T08:59:48;13.65;;;8.00;;
46407;SDS011;32110;45.724;21.276;2023-02-26T09:02:14;14.57;;;8.15;;
46407;SDS011;32110;45.724;21.276;2023-02-26T09:04:39;16.47;;;8.67;;
46407;SDS011;32110;45.724;21.276;2023-02-26T09:07:04;14.43;;;8.75;;
46407;SDS011;32110;45.724;21.276;2023-02-26T09:09:29;16.07;;;8.37;;
46407;SDS011;32110;45.724;21.276;2023-02-26T09:11:55;17.47;;;8.97;;
46407;SDS011;32110;45.724;21.276;2023-02-26T09:14:20;16.73;;;9.65;;
46407;SDS011;32110;45.724;21.276;2023-02-26T09:16:45;14.10;;;8.63;;
46407;SDS011;32110;45.724;21.276;2023-02-26T09:19:10;16.20;;;7.97;;
46407;SDS011;32110;45.724;21.276;2023-02-26T09:21:36;16.50;;;8.75;;
46407;SDS011;32110;45.724;21.276;2023-02-26T09:24:02;17.60;;;10.30;;
46407;SDS011;32110;45.724;21.276;2023-02-26T09:26:28;16.40;;;8.85;;
46407;SDS011;32110;45.724;21.276;2023-02-26T09:28:53;16.88;;;9.55;;
46407;SDS011;32110;45.724;21.276;2023-02-26T09:31:18;16.80;;;9.85;;
46407;SDS011;32110;45.724;21.276;2023-02-26T09:33:44;18.02;;;10.18;;
46407;SDS011;32110;45.724;21.276;2023-02-26T09:36:09;19.92;;;10.73;;
46407;SDS011;32110;45.724;21.276;2023-02-26T09:38:35;18.15;;;9.80;;
46407;SDS011;32110;45.724;21.276;2023-02-26T09:41:01;18.15;;;9.80;;
46407;SDS011;32110;45.724;21.276;2023-02-26T09:46:27;17.33;;;10.00;;
46407;SDS011;32110;45.724;21.276;2023-02-26T09:49:04;18.10;;;10.40;;
46407;SDS011;32110;45.724;21.276;2023-02-26T09:51:55;16.08;;;8.63;;
46407;SDS011;32110;45.724;21.276;2023-02-26T09:54:27;16.40;;;8.98;;
46407;SDS011;32110;45.724;21.276;2023-02-26T09:56:57;19.92;;;9.90;;
46407;SDS011;32110;45.724;21.276;2023-02-26T09:59:25;15.10;;;8.88;;
46407;SDS011;32110;45.724;21.276;2023-02-26T10:01:58;15.82;;;9.80;;
46407;SDS011;32110;45.724;21.276;2023-02-26T10:12:38;16.48;;;9.25;;
46407;SDS011;32110;45.724;21.276;2023-02-26T10:15:14;19.50;;;10.25;;
46407;SDS011;32110;45.724;21.276;2023-02-26T10:20:30;16.90;;;9.82;;
46407;SDS011;32110;45.724;21.276;2023-02-26T10:25:45;16.67;;;9.70;;
46407;SDS011;32110;45.724;21.276;2023-02-26T10:31:48;17.75;;;10.40;;
46407;SDS011;32110;45.724;21.276;2023-02-26T10:36:39;16.48;;;10.25;;
46407;SDS011;32110;45.724;21.276;2023-02-26T10:39:10;15.52;;;9.48;;
46407;SDS011;32110;45.724;21.276;2023-02-26T10:41:38;16.17;;;9.68;;
46407;SDS011;32110;45.724;21.276;2023-02-26T10:44:05;24.13;;;12.05;;
46407;SDS011;32110;45.724;21.276;2023-02-26T10:46:37;15.32;;;9.45;;
46407;SDS011;32110;45.724;21.276;2023-02-26T10:49:19;19.08;;;10.38;;
46407;SDS011;32110;45.724;21.276;2023-02-26T10:51:50;16.73;;;10.05;;
46407;SDS011;32110;45.724;21.276;2023-02-26T10:54:32;15.23;;;9.73;;
46407;SDS011;32110;45.724;21.276;2023-02-26T10:56:59;19.08;;;10.30;;
46407;SDS011;32110;45.724;21.276;2023-02-26T10:59:24;17.58;;;10.55;;
46407;SDS011;32110;45.724;21.276;2023-02-26T11:01:50;17.08;;;10.32;;
46407;SDS011;32110;45.724;21.276;2023-02-26T11:04:23;17.17;;;9.85;;
46407;SDS011;32110;45.724;21.276;2023-02-26T11:06:51;18.25;;;10.23;;
46407;SDS011;32110;45.724;21.276;2023-02-26T11:09:24;18.90;;;11.40;;
46407;SDS011;32110;45.724;21.276;2023-02-26T11:11:54;19.08;;;10.57;;
46407;SDS011;32110;45.724;21.276;2023-02-26T11:14:20;17.42;;;10.40;;
46407;SDS011;32110;45.724;21.276;2023-02-26T11:16:49;16.90;;;9.70;;
46407;SDS011;32110;45.724;21.276;2023-02-26T11:19:16;18.30;;;10.93;;
46407;SDS011;32110;45.724;21.276;2023-02-26T11:21:44;17.08;;;10.43;;
46407;SDS011;32110;45.724;21.276;2023-02-26T11:24:15;18.15;;;10.20;;
46407;SDS011;32110;45.724;21.276;2023-02-26T11:26:42;18.15;;;10.73;;
46407;SDS011;32110;45.724;21.276;2023-02-26T11:29:12;22.42;;;12.27;;
46407;SDS011;32110;45.724;21.276;2023-02-26T11:31:38;19.73;;;11.80;;
46407;SDS011;32110;45.724;21.276;2023-02-26T11:34:04;18.77;;;10.97;;
46407;SDS011;32110;45.724;21.276;2023-02-26T11:36:32;18.52;;;10.77;;
46407;SDS011;32110;45.724;21.276;2023-02-26T11:39:06;22.88;;;12.07;;
46407;SDS011;32110;45.724;21.276;2023-02-26T11:41:36;28.92;;;15.68;;
46407;SDS011;32110;45.724;21.276;2023-02-26T11:44:12;28.27;;;15.18;;
46407;SDS011;32110;45.724;21.276;2023-02-26T11:47:00;18.35;;;9.38;;
46407;SDS011;32110;45.724;21.276;2023-02-26T11:49:25;15.82;;;9.73;;
46407;SDS011;32110;45.724;21.276;2023-02-26T11:52:53;18.38;;;9.60;;
46407;SDS011;32110;45.724;21.276;2023-02-26T11:54:46;20.40;;;12.07;;
46407;SDS011;32110;45.724;21.276;2023-02-26T11:57:19;29.50;;;16.05;;
46407;SDS011;32110;45.724;21.276;2023-02-26T11:59:51;19.73;;;11.07;;
46407;SDS011;32110;45.724;21.276;2023-02-26T12:02:18;14.98;;;9.93;;
46407;SDS011;32110;45.724;21.276;2023-02-26T12:04:44;15.55;;;10.10;;
46407;SDS011;32110;45.724;21.276;2023-02-26T12:07:11;18.33;;;9.93;;
46407;SDS011;32110;45.724;21.276;2023-02-26T12:09:37;15.45;;;8.60;;
46407;SDS011;32110;45.724;21.276;2023-02-26T12:20:14;19.17;;;10.30;;
46407;SDS011;32110;45.724;21.276;2023-02-26T12:34:10;10.73;;;7.07;;
46407;SDS011;32110;45.724;21.276;2023-02-26T12:43:56;35.00;;;15.82;;
46407;SDS011;32110;45.724;21.276;2023-02-26T12:46:46;28.38;;;14.32;;
46407;SDS011;32110;45.724;21.276;2023-02-26T13:00:14;28.98;;;13.05;;
46407;SDS011;32110;45.724;21.276;2023-02-26T13:05:14;34.65;;;14.88;;
46407;SDS011;32110;45.724;21.276;2023-02-26T13:07:59;30.52;;;11.27;;
46407;SDS011;32110;45.724;21.276;2023-02-26T13:20:26;15.63;;;8.45;;
46407;SDS011;32110;45.724;21.276;2023-02-26T13:22:53;20.48;;;9.88;;
46407;SDS011;32110;45.724;21.276;2023-02-26T13:27:47;10.05;;;6.32;;
46407;SDS011;32110;45.724;21.276;2023-02-26T13:30:57;11.57;;;6.32;;
46407;SDS011;32110;45.724;21.276;2023-02-26T13:33:03;11.00;;;6.27;;
46407;SDS011;32110;45.724;21.276;2023-02-26T13:35:32;10.93;;;6.40;;
46407;SDS011;32110;45.724;21.276;2023-02-26T13:37:59;10.90;;;6.55;;
46407;SDS011;32110;45.724;21.276;2023-02-26T13:48:28;9.87;;;5.17;;
46407;SDS011;32110;45.724;21.276;2023-02-26T13:55:47;8.67;;;5.07;;
46407;SDS011;32110;45.724;21.276;2023-02-26T14:08:44;6.70;;;4.25;;
46407;SDS011;32110;45.724;21.276;2023-02-26T14:13:42;8.90;;;5.22;;
46407;SDS011;32110;45.724;21.276;2023-02-26T14:16:27;7.18;;;4.93;;
46407;SDS011;32110;45.724;21.276;2023-02-26T14:18:53;8.68;;;5.20;;
46407;SDS011;32110;45.724;21.276;2023-02-26T14:24:13;9.75;;;5.43;;
46407;SDS011;32110;45.724;21.276;2023-02-26T14:26:41;11.38;;;6.57;;
46407;SDS011;32110;45.724;21.276;2023-02-26T14:29:12;12.27;;;7.67;;
46407;SDS011;32110;45.724;21.276;2023-02-26T14:34:23;20.38;;;9.55;;
46407;SDS011;32110;45.724;21.276;2023-02-26T14:36:59;17.92;;;9.40;;
46407;SDS011;32110;45.724;21.276;2023-02-26T14:39:35;14.68;;;8.60;;
46407;SDS011;32110;45.724;21.276;2023-02-26T14:42:04;10.25;;;6.60;;
46407;SDS011;32110;45.724;21.276;2023-02-26T14:44:40;11.95;;;7.38;;
46407;SDS011;32110;45.724;21.276;2023-02-26T14:47:06;13.50;;;8.52;;
46407;SDS011;32110;45.724;21.276;2023-02-26T14:49:34;17.77;;;11.23;;
46407;SDS011;32110;45.724;21.276;2023-02-26T15:05:03;14.80;;;9.05;;
46407;SDS011;32110;45.724;21.276;2023-02-26T15:07:53;14.80;;;8.38;;
46407;SDS011;32110;45.724;21.276;2023-02-26T15:15:37;15.65;;;8.43;;
46407;SDS011;32110;45.724;21.276;2023-02-26T15:25:48;20.55;;;12.15;;
46407;SDS011;32110;45.724;21.276;2023-02-26T15:28:25;23.38;;;13.25;;
46407;SDS011;32110;45.724;21.276;2023-02-26T15:30:52;22.58;;;12.20;;
46407;SDS011;32110;45.724;21.276;2023-02-26T15:33:19;20.10;;;11.43;;
46407;SDS011;32110;45.724;21.276;2023-02-26T15:35:44;21.40;;;11.40;;
46407;SDS011;32110;45.724;21.276;2023-02-26T15:38:11;23.25;;;12.88;;
46407;SDS011;32110;45.724;21.276;2023-02-26T15:40:37;21.42;;;12.48;;
46407;SDS011;32110;45.724;21.276;2023-02-26T15:43:02;22.55;;;12.00;;
46407;SDS011;32110;45.724;21.276;2023-02-26T15:45:36;23.70;;;13.23;;
46407;SDS011;32110;45.724;21.276;2023-02-26T15:50:41;18.00;;;10.48;;
46407;SDS011;32110;45.724;21.276;2023-02-26T15:53:07;17.38;;;9.50;;
46407;SDS011;32110;45.724;21.276;2023-02-26T15:55:35;16.17;;;8.88;;
46407;SDS011;32110;45.724;21.276;2023-02-26T15:58:01;15.23;;;8.55;;
46407;SDS011;32110;45.724;21.276;2023-02-26T16:00:27;14.35;;;8.82;;
46407;SDS011;32110;45.724;21.276;2023-02-26T16:02:56;14.00;;;8.60;;
46407;SDS011;32110;45.724;21.276;2023-02-26T16:05:23;13.57;;;8.50;;
46407;SDS011;32110;45.724;21.276;2023-02-26T16:07:49;15.55;;;9.00;;
46407;SDS011;32110;45.724;21.276;2023-02-26T16:10:26;17.35;;;9.25;;
46407;SDS011;32110;45.724;21.276;2023-02-26T16:12:52;15.73;;;8.90;;
46407;SDS011;32110;45.724;21.276;2023-02-26T16:15:23;15.65;;;9.50;;
46407;SDS011;32110;45.724;21.276;2023-02-26T16:17:50;17.77;;;9.45;;
46407;SDS011;32110;45.724;21.276;2023-02-26T16:20:20;13.45;;;8.40;;
46407;SDS011;32110;45.724;21.276;2023-02-26T16:22:50;16.50;;;9.45;;
46407;SDS011;32110;45.724;21.276;2023-02-26T16:27:59;19.48;;;9.93;;
46407;SDS011;32110;45.724;21.276;2023-02-26T16:30:29;14.82;;;9.45;;
46407;SDS011;32110;45.724;21.276;2023-02-26T16:35:21;15.70;;;9.37;;
46407;SDS011;32110;45.724;21.276;2023-02-26T16:37:49;15.65;;;9.32;;
46407;SDS011;32110;45.724;21.276;2023-02-26T16:40:26;14.60;;;9.10;;
46407;SDS011;32110;45.724;21.276;2023-02-26T16:47:45;16.63;;;8.98;;
46407;SDS011;32110;45.724;21.276;2023-02-26T16:50:16;14.65;;;8.95;;
46407;SDS011;32110;45.724;21.276;2023-02-26T16:52:41;15.63;;;9.30;;
46407;SDS011;32110;45.724;21.276;2023-02-26T16:55:07;17.80;;;10.05;;
46407;SDS011;32110;45.724;21.276;2023-02-26T16:57:35;17.85;;;10.13;;
46407;SDS011;32110;45.724;21.276;2023-02-26T17:00:04;19.98;;;10.30;;
46407;SDS011;32110;45.724;21.276;2023-02-26T17:02:33;17.73;;;10.63;;
46407;SDS011;32110;45.724;21.276;2023-02-26T17:05:00;17.67;;;10.32;;
46407;SDS011;32110;45.724;21.276;2023-02-26T17:09:51;20.65;;;10.57;;
46407;SDS011;32110;45.724;21.276;2023-02-26T17:12:21;21.52;;;12.13;;
46407;SDS011;32110;45.724;21.276;2023-02-26T17:14:51;18.25;;;10.82;;
46407;SDS011;32110;45.724;21.276;2023-02-26T17:17:18;19.17;;;10.52;;
46407;SDS011;32110;45.724;21.276;2023-02-26T17:19:43;19.17;;;11.13;;
46407;SDS011;32110;45.724;21.276;2023-02-26T17:22:11;17.70;;;10.90;;
46407;SDS011;32110;45.724;21.276;2023-02-26T17:24:37;20.40;;;11.40;;
46407;SDS011;32110;45.724;21.276;2023-02-26T17:27:09;19.38;;;11.57;;
46407;SDS011;32110;45.724;21.276;2023-02-26T17:29:36;21.65;;;12.02;;
46407;SDS011;32110;45.724;21.276;2023-02-26T17:32:02;21.05;;;12.25;;
46407;SDS011;32110;45.724;21.276;2023-02-26T17:34:28;23.00;;;12.65;;
46407;SDS011;32110;45.724;21.276;2023-02-26T17:36:53;24.17;;;12.87;;